createdAt,value
2023-02-22T00:00:28.431Z,969.97
2023-02-22T00:01:28.505Z,969.99
2023-02-22T00:02:28.523Z,970.04
2023-02-22T00:03:28.682Z,970.00
2023-02-22T00:04:28.614Z,969.98
2023-02-22T00:05:28.680Z,970.01
2023-02-22T00:06:28.674Z,970.00
2023-02-22T00:07:28.731Z,969.98
2023-02-22T00:08:28.831Z,969.97
2023-02-22T00:09:28.832Z,969.97
2023-02-22T00:10:28.852Z,970.01
2023-02-22T00:11:28.896Z,969.98
2023-02-22T00:12:28.937Z,970.04
2023-02-22T00:13:28.970Z,970.05
2023-02-22T00:14:29.062Z,970.02
2023-02-22T00:15:29.083Z,970.03
2023-02-22T00:16:29.162Z,970.01
2023-02-22T00:17:29.146Z,970.04
2023-02-22T00:18:29.237Z,970.03
2023-02-22T00:19:29.251Z,970.01
2023-02-22T00:20:29.290Z,970.00
2023-02-22T00:21:29.986Z,970.02
2023-02-22T00:22:29.353Z,969.95
2023-02-22T00:23:29.561Z,969.99
2023-02-22T00:24:29.544Z,970.04
2023-02-22T00:25:29.470Z,970.00
2023-02-22T00:26:29.533Z,969.98
2023-02-22T00:27:29.563Z,969.97
2023-02-22T00:28:30.500Z,969.98
2023-02-22T00:29:29.668Z,969.96
2023-02-22T00:30:29.722Z,969.96
2023-02-22T00:31:29.777Z,969.98
2023-02-22T00:32:29.826Z,969.96
2023-02-22T00:33:29.806Z,970.00
2023-02-22T00:34:29.877Z,969.93
2023-02-22T00:35:30.492Z,969.99
2023-02-22T00:36:29.939Z,969.99
2023-02-22T00:37:29.998Z,969.96
2023-02-22T00:38:30.052Z,969.93
2023-02-22T00:39:30.060Z,969.95
2023-02-22T00:40:30.094Z,969.98
2023-02-22T00:41:31.009Z,969.98
2023-02-22T00:42:30.184Z,969.98
2023-02-22T00:43:30.261Z,969.98
2023-02-22T00:44:30.262Z,969.94
2023-02-22T00:45:30.353Z,969.99
2023-02-22T00:46:30.354Z,969.96
2023-02-22T00:47:30.396Z,969.98
2023-02-22T00:48:30.465Z,969.95
2023-02-22T00:49:30.480Z,969.97
2023-02-22T00:50:30.520Z,969.97
2023-02-22T00:51:30.565Z,969.99
2023-02-22T00:52:30.597Z,970.00
2023-02-22T00:53:30.679Z,970.01
2023-02-22T00:54:30.679Z,969.98
2023-02-22T00:55:30.727Z,969.99
2023-02-22T00:56:31.508Z,969.98
2023-02-22T00:57:30.816Z,969.98
2023-02-22T00:58:30.875Z,969.99
2023-02-22T00:59:30.900Z,969.98
2023-02-22T01:00:30.935Z,969.99
2023-02-22T01:01:31.055Z,969.99
2023-02-22T01:02:31.024Z,969.97
2023-02-22T01:03:31.115Z,970.03
2023-02-22T01:04:31.121Z,970.01
2023-02-22T01:05:31.142Z,969.99
2023-02-22T01:06:31.179Z,969.99
2023-02-22T01:07:31.224Z,969.99
2023-02-22T01:08:31.298Z,970.00
2023-02-22T01:09:31.331Z,969.98
2023-02-22T01:10:31.362Z,970.03
2023-02-22T01:11:31.384Z,969.95
2023-02-22T01:12:31.436Z,969.95
2023-02-22T01:13:31.470Z,969.97
2023-02-22T01:14:31.541Z,969.94
2023-02-22T01:15:31.547Z,969.94
2023-02-22T01:16:31.652Z,969.94
2023-02-22T01:17:31.631Z,969.99
2023-02-22T01:18:31.707Z,969.92
2023-02-22T01:19:31.712Z,969.94
2023-02-22T01:20:32.502Z,969.93
2023-02-22T01:21:31.797Z,969.93
2023-02-22T01:22:31.850Z,969.93
2023-02-22T01:23:31.946Z,969.89
2023-02-22T01:24:31.959Z,969.87
2023-02-22T01:25:32.006Z,969.85
2023-02-22T01:26:32.995Z,969.88
2023-02-22T01:27:32.045Z,969.85
2023-02-22T01:28:32.094Z,969.89
2023-02-22T01:29:32.163Z,969.84
2023-02-22T01:30:32.284Z,969.84
2023-02-22T01:31:32.247Z,969.81
2023-02-22T01:32:32.262Z,969.79
2023-02-22T01:33:32.293Z,969.80
2023-02-22T01:34:32.369Z,969.83
2023-02-22T01:35:32.385Z,969.82
2023-02-22T01:36:32.421Z,969.80
2023-02-22T01:37:32.457Z,969.80
2023-02-22T01:38:32.493Z,969.79
2023-02-22T01:39:32.577Z,969.78
2023-02-22T01:40:32.587Z,969.75
2023-02-22T01:41:32.648Z,969.76
2023-02-22T01:42:32.663Z,969.74
2023-02-22T01:43:32.728Z,969.70
2023-02-22T01:44:32.736Z,969.68
2023-02-22T01:45:32.946Z,969.68
2023-02-22T01:46:32.823Z,969.70
2023-02-22T01:47:32.876Z,969.65
2023-02-22T01:48:32.901Z,969.67
2023-02-22T01:49:32.954Z,969.65
2023-02-22T01:50:33.014Z,969.65
2023-02-22T01:51:33.033Z,969.61
2023-02-22T01:52:33.068Z,969.63
2023-02-22T01:53:33.118Z,969.57
2023-02-22T01:54:33.153Z,969.66
2023-02-22T01:55:33.226Z,969.63
2023-02-22T01:56:33.259Z,969.60
2023-02-22T01:57:33.288Z,969.57
2023-02-22T01:58:33.315Z,969.59
2023-02-22T01:59:33.359Z,969.58
2023-02-22T02:00:33.389Z,969.56
2023-02-22T02:01:33.469Z,969.56
2023-02-22T02:02:33.476Z,969.54
2023-02-22T02:03:33.535Z,969.50
2023-02-22T02:04:33.553Z,969.52
2023-02-22T02:05:33.602Z,969.51
2023-02-22T02:06:33.662Z,969.51
2023-02-22T02:07:33.684Z,969.54
2023-02-22T02:08:33.756Z,969.52
2023-02-22T02:09:33.756Z,969.53
2023-02-22T02:10:33.803Z,969.51
2023-02-22T02:11:33.835Z,969.49
2023-02-22T02:12:33.917Z,969.53
2023-02-22T02:13:33.922Z,969.52
2023-02-22T02:14:33.993Z,969.48
2023-02-22T02:15:34.025Z,969.48
2023-02-22T02:16:34.050Z,969.50
2023-02-22T02:17:34.986Z,969.49
2023-02-22T02:18:34.136Z,969.48
2023-02-22T02:19:34.198Z,969.52
2023-02-22T02:20:34.214Z,969.48
2023-02-22T02:21:34.245Z,969.49
2023-02-22T02:22:34.304Z,969.50
2023-02-22T02:23:34.326Z,969.53
2023-02-22T02:24:34.408Z,969.51
2023-02-22T02:25:34.415Z,969.51
2023-02-22T02:26:34.463Z,969.51
2023-02-22T02:27:34.496Z,969.54
2023-02-22T02:28:34.585Z,969.51
2023-02-22T02:29:34.576Z,969.55
2023-02-22T02:30:34.632Z,969.55
2023-02-22T02:31:34.697Z,969.53
2023-02-22T02:32:34.763Z,969.54
2023-02-22T02:33:34.751Z,969.55
2023-02-22T02:34:34.786Z,969.47
2023-02-22T02:35:34.824Z,969.49
2023-02-22T02:36:34.899Z,969.51
2023-02-22T02:37:34.933Z,969.45
2023-02-22T02:38:34.982Z,969.43
2023-02-22T02:39:34.990Z,969.42
2023-02-22T02:40:35.018Z,969.41
2023-02-22T02:41:35.067Z,969.41
2023-02-22T02:42:35.131Z,969.36
2023-02-22T02:43:35.998Z,969.36
2023-02-22T02:44:35.179Z,969.35
2023-02-22T02:45:35.232Z,969.30
2023-02-22T02:46:35.264Z,969.33
2023-02-22T02:47:35.345Z,969.31
2023-02-22T02:48:35.376Z,969.35
2023-02-22T02:49:35.393Z,969.32
2023-02-22T02:50:35.426Z,969.33
2023-02-22T02:51:35.515Z,969.29
2023-02-22T02:52:35.508Z,969.32
2023-02-22T02:53:35.553Z,969.25
2023-02-22T02:54:35.585Z,969.29
2023-02-22T02:55:35.641Z,969.28
2023-02-22T02:56:35.688Z,969.28
2023-02-22T02:57:35.723Z,969.29
2023-02-22T02:58:35.783Z,969.23
2023-02-22T02:59:35.796Z,969.26
2023-02-22T03:00:35.817Z,969.22
2023-02-22T03:01:35.903Z,969.26
2023-02-22T03:02:35.940Z,969.21
2023-02-22T03:03:35.959Z,969.20
2023-02-22T03:04:35.987Z,969.19
2023-02-22T03:05:36.031Z,969.18
2023-02-22T03:06:36.059Z,969.14
2023-02-22T03:07:36.179Z,969.16
2023-02-22T03:08:36.160Z,969.10
2023-02-22T03:09:36.194Z,969.12
2023-02-22T03:10:36.240Z,969.04
2023-02-22T03:11:36.282Z,969.08
2023-02-22T03:12:36.361Z,969.07
2023-02-22T03:13:36.358Z,969.07
2023-02-22T03:14:36.406Z,969.02
2023-02-22T03:15:36.448Z,969.03
2023-02-22T03:16:36.518Z,969.02
2023-02-22T03:17:36.550Z,969.04
2023-02-22T03:18:36.568Z,969.02
2023-02-22T03:19:36.598Z,968.99
2023-02-22T03:20:36.709Z,968.96
2023-02-22T03:21:36.714Z,968.96
2023-02-22T03:22:36.725Z,968.96
2023-02-22T03:23:36.758Z,968.95
2023-02-22T03:24:36.806Z,968.95
2023-02-22T03:25:36.873Z,968.97
2023-02-22T03:26:36.887Z,968.95
2023-02-22T03:27:37.489Z,968.94
2023-02-22T03:28:37.011Z,968.96
2023-02-22T03:29:37.004Z,968.96
2023-02-22T03:30:37.110Z,969.00
2023-02-22T03:31:37.108Z,968.98
2023-02-22T03:32:37.172Z,969.00
2023-02-22T03:33:37.170Z,968.99
2023-02-22T03:34:37.211Z,969.00
2023-02-22T03:35:37.242Z,969.01
2023-02-22T03:36:37.315Z,968.97
2023-02-22T03:37:37.322Z,968.96
2023-02-22T03:38:37.371Z,968.95
2023-02-22T03:39:37.411Z,968.98
2023-02-22T03:40:37.480Z,968.98
2023-02-22T03:41:37.530Z,968.97
2023-02-22T03:42:37.548Z,968.99
2023-02-22T03:43:37.588Z,969.00
2023-02-22T03:44:37.610Z,968.96
2023-02-22T03:45:37.655Z,968.98
2023-02-22T03:46:37.779Z,968.96
2023-02-22T03:47:37.732Z,968.98
2023-02-22T03:48:37.769Z,969.01
2023-02-22T03:49:37.814Z,968.96
2023-02-22T03:50:38.501Z,968.93
2023-02-22T03:51:37.940Z,968.97
2023-02-22T03:52:37.963Z,968.96
2023-02-22T03:53:37.976Z,968.98
2023-02-22T03:54:38.013Z,968.96
2023-02-22T03:55:38.055Z,968.99
2023-02-22T03:56:38.084Z,969.00
2023-02-22T03:57:38.165Z,969.01
2023-02-22T03:58:38.196Z,969.02
2023-02-22T03:59:38.220Z,969.01
2023-02-22T04:00:38.246Z,969.03
2023-02-22T04:01:38.296Z,969.02
2023-02-22T04:02:38.385Z,969.00
2023-02-22T04:03:38.375Z,968.96
2023-02-22T04:04:38.523Z,969.01
2023-02-22T04:05:39.000Z,968.99
2023-02-22T04:06:38.493Z,968.97
2023-02-22T04:07:38.544Z,969.01
2023-02-22T04:08:38.602Z,968.96
2023-02-22T04:09:38.607Z,968.98
2023-02-22T04:10:38.655Z,968.96
2023-02-22T04:11:38.693Z,968.97
2023-02-22T04:12:38.734Z,969.00
2023-02-22T04:13:38.800Z,969.02
2023-02-22T04:14:38.816Z,969.00
2023-02-22T04:15:38.881Z,968.98
2023-02-22T04:16:38.895Z,969.00
2023-02-22T04:17:38.939Z,968.97
2023-02-22T04:18:38.998Z,968.97
2023-02-22T04:19:39.007Z,968.96
2023-02-22T04:20:39.052Z,968.97
2023-02-22T04:21:39.130Z,968.97
2023-02-22T04:22:39.136Z,968.97
2023-02-22T04:23:39.173Z,968.97
2023-02-22T04:24:39.240Z,968.96
2023-02-22T04:25:39.251Z,968.96
2023-02-22T04:26:39.297Z,968.96
2023-02-22T04:27:39.328Z,968.97
2023-02-22T04:28:39.380Z,968.93
2023-02-22T04:29:39.439Z,968.92
2023-02-22T04:30:39.530Z,968.95
2023-02-22T04:31:39.554Z,968.95
2023-02-22T04:32:39.535Z,968.93
2023-02-22T04:33:39.603Z,968.91
2023-02-22T04:34:39.646Z,968.90
2023-02-22T04:35:39.647Z,968.92
2023-02-22T04:36:39.694Z,968.93
2023-02-22T04:37:39.734Z,968.91
2023-02-22T04:38:39.764Z,968.91
2023-02-22T04:39:39.861Z,968.93
2023-02-22T04:40:39.848Z,968.89
2023-02-22T04:41:39.910Z,968.87
2023-02-22T04:42:39.928Z,968.87
2023-02-22T04:43:39.990Z,968.86
2023-02-22T04:44:40.036Z,968.88
2023-02-22T04:45:40.054Z,968.86
2023-02-22T04:46:40.148Z,968.85
2023-02-22T04:47:40.132Z,968.87
2023-02-22T04:48:40.163Z,968.85
2023-02-22T04:49:40.264Z,968.87
2023-02-22T04:50:40.989Z,968.86
2023-02-22T04:51:40.295Z,968.82
2023-02-22T04:52:40.328Z,968.85
2023-02-22T04:53:40.377Z,968.84
2023-02-22T04:54:40.445Z,968.83
2023-02-22T04:55:40.452Z,968.84
2023-02-22T04:56:40.484Z,968.85
2023-02-22T04:57:40.533Z,968.85
2023-02-22T04:58:40.567Z,968.85
2023-02-22T04:59:40.645Z,968.83
2023-02-22T05:00:40.683Z,968.83
2023-02-22T05:01:40.698Z,968.82
2023-02-22T05:02:40.764Z,968.84
2023-02-22T05:03:40.768Z,968.87
2023-02-22T05:04:40.854Z,968.88
2023-02-22T05:05:40.855Z,968.88
2023-02-22T05:06:40.887Z,968.86
2023-02-22T05:07:40.930Z,968.87
2023-02-22T05:08:41.010Z,968.88
2023-02-22T05:09:41.011Z,968.88
2023-02-22T05:10:41.051Z,968.86
2023-02-22T05:11:41.093Z,968.88
2023-02-22T05:12:41.136Z,968.86
2023-02-22T05:13:41.201Z,968.85
2023-02-22T05:14:41.210Z,968.91
2023-02-22T05:15:41.311Z,968.89
2023-02-22T05:16:41.293Z,968.87
2023-02-22T05:17:41.320Z,968.90
2023-02-22T05:18:41.398Z,968.88
2023-02-22T05:19:41.402Z,968.90
2023-02-22T05:20:41.461Z,968.92
2023-02-22T05:21:41.482Z,968.93
2023-02-22T05:22:41.565Z,968.92
2023-02-22T05:23:41.571Z,968.97
2023-02-22T05:24:41.617Z,968.94
2023-02-22T05:25:41.664Z,968.91
2023-02-22T05:26:41.690Z,968.92
2023-02-22T05:27:41.748Z,968.92
2023-02-22T05:28:42.502Z,968.90
2023-02-22T05:29:41.810Z,968.91
2023-02-22T05:30:41.947Z,968.88
2023-02-22T05:31:42.015Z,968.83
2023-02-22T05:32:41.948Z,968.84
2023-02-22T05:33:41.992Z,968.86
2023-02-22T05:34:42.043Z,968.85
2023-02-22T05:35:42.996Z,968.83
2023-02-22T05:36:42.089Z,968.85
2023-02-22T05:37:42.119Z,968.87
2023-02-22T05:38:42.191Z,968.87
2023-02-22T05:39:42.217Z,968.85
2023-02-22T05:40:42.279Z,968.85
2023-02-22T05:41:42.306Z,968.85
2023-02-22T05:42:42.321Z,968.88
2023-02-22T05:43:42.379Z,968.84
2023-02-22T05:44:42.447Z,968.85
2023-02-22T05:45:42.485Z,968.85
2023-02-22T05:46:42.516Z,968.85
2023-02-22T05:47:42.542Z,968.85
2023-02-22T05:48:42.558Z,968.89
2023-02-22T05:49:42.607Z,968.86
2023-02-22T05:50:42.668Z,968.88
2023-02-22T05:51:42.688Z,968.87
2023-02-22T05:52:42.721Z,968.87
2023-02-22T05:53:42.764Z,968.85
2023-02-22T05:54:42.798Z,968.87
2023-02-22T05:55:44.026Z,968.92
2023-02-22T05:56:42.876Z,968.89
2023-02-22T05:57:42.969Z,968.89
2023-02-22T05:58:42.958Z,968.87
2023-02-22T05:59:43.006Z,968.90
2023-02-22T06:00:43.992Z,968.88
2023-02-22T06:01:43.139Z,968.88
2023-02-22T06:02:43.118Z,968.86
2023-02-22T06:03:43.173Z,968.87
2023-02-22T06:04:43.194Z,968.93
2023-02-22T06:05:43.288Z,968.91
2023-02-22T06:06:43.304Z,968.94
2023-02-22T06:07:43.339Z,968.91
2023-02-22T06:08:43.390Z,968.95
2023-02-22T06:09:43.398Z,968.94
2023-02-22T06:10:43.442Z,968.95
2023-02-22T06:11:43.472Z,968.97
2023-02-22T06:12:43.532Z,968.97
2023-02-22T06:13:43.592Z,968.97
2023-02-22T06:14:43.607Z,968.97
2023-02-22T06:15:44.500Z,969.04
2023-02-22T06:16:43.684Z,969.02
2023-02-22T06:17:43.714Z,969.01
2023-02-22T06:18:43.796Z,969.02
2023-02-22T06:19:43.802Z,969.02
2023-02-22T06:20:43.840Z,969.04
2023-02-22T06:21:43.877Z,969.01
2023-02-22T06:22:43.925Z,969.01
2023-02-22T06:23:44.001Z,969.05
2023-02-22T06:24:44.005Z,969.01
2023-02-22T06:25:44.033Z,969.03
2023-02-22T06:26:44.123Z,969.02
2023-02-22T06:27:44.120Z,969.03
2023-02-22T06:28:44.192Z,969.07
2023-02-22T06:29:44.208Z,969.10
2023-02-22T06:30:44.290Z,969.08
2023-02-22T06:31:44.334Z,969.08
2023-02-22T06:32:44.323Z,969.08
2023-02-22T06:33:44.383Z,969.09
2023-02-22T06:34:44.408Z,969.07
2023-02-22T06:35:44.442Z,969.14
2023-02-22T06:36:44.514Z,969.12
2023-02-22T06:37:44.519Z,969.17
2023-02-22T06:38:45.490Z,969.16
2023-02-22T06:39:44.606Z,969.18
2023-02-22T06:40:44.649Z,969.17
2023-02-22T06:41:44.726Z,969.16
2023-02-22T06:42:44.735Z,969.17
2023-02-22T06:43:44.767Z,969.15
2023-02-22T06:44:44.800Z,969.21
2023-02-22T06:45:45.514Z,969.19
2023-02-22T06:46:44.905Z,969.20
2023-02-22T06:47:44.931Z,969.27
2023-02-22T06:48:44.965Z,969.23
2023-02-22T06:49:45.018Z,969.20
2023-02-22T06:50:45.048Z,969.22
2023-02-22T06:51:45.144Z,969.23
2023-02-22T06:52:45.142Z,969.28
2023-02-22T06:53:45.201Z,969.28
2023-02-22T06:54:45.240Z,969.31
2023-02-22T06:55:45.257Z,969.29
2023-02-22T06:56:45.300Z,969.34
2023-02-22T06:57:45.341Z,969.36
2023-02-22T06:58:45.365Z,969.32
2023-02-22T06:59:45.459Z,969.33
2023-02-22T07:00:45.474Z,969.33
2023-02-22T07:01:45.520Z,969.41
2023-02-22T07:02:45.541Z,969.39
2023-02-22T07:03:45.666Z,969.39
2023-02-22T07:04:45.645Z,969.36
2023-02-22T07:05:45.695Z,969.41
2023-02-22T07:06:45.702Z,969.38
2023-02-22T07:07:45.747Z,969.40
2023-02-22T07:08:45.790Z,969.41
2023-02-22T07:09:45.828Z,969.45
2023-02-22T07:10:45.898Z,969.47
2023-02-22T07:11:46.501Z,969.42
2023-02-22T07:12:45.958Z,969.43
2023-02-22T07:13:46.492Z,969.41
2023-02-22T07:14:46.067Z,969.45
2023-02-22T07:15:46.072Z,969.45
2023-02-22T07:16:46.116Z,969.46
2023-02-22T07:17:46.163Z,969.44
2023-02-22T07:18:46.262Z,969.47
2023-02-22T07:19:46.246Z,969.49
2023-02-22T07:20:46.292Z,969.49
2023-02-22T07:21:46.320Z,969.50
2023-02-22T07:22:46.374Z,969.51
2023-02-22T07:23:46.440Z,969.52
2023-02-22T07:24:46.461Z,969.52
2023-02-22T07:25:46.496Z,969.53
2023-02-22T07:26:46.544Z,969.49
2023-02-22T07:27:46.572Z,969.48
2023-02-22T07:28:46.647Z,969.49
2023-02-22T07:29:47.502Z,969.46
2023-02-22T07:30:46.912Z,969.44
2023-02-22T07:31:47.502Z,969.43
2023-02-22T07:32:46.916Z,969.44
2023-02-22T07:33:46.821Z,969.43
2023-02-22T07:34:46.904Z,969.36
2023-02-22T07:35:46.940Z,969.33
2023-02-22T07:36:46.993Z,969.35
2023-02-22T07:37:47.018Z,969.39
2023-02-22T07:38:47.084Z,969.36
2023-02-22T07:39:47.119Z,969.40
2023-02-22T07:40:47.170Z,969.30
2023-02-22T07:41:47.190Z,969.35
2023-02-22T07:42:47.209Z,969.30
2023-02-22T07:43:47.305Z,969.31
2023-02-22T07:44:48.032Z,969.31
2023-02-22T07:45:47.418Z,969.33
2023-02-22T07:46:47.373Z,969.29
2023-02-22T07:47:47.445Z,969.29
2023-02-22T07:48:47.515Z,969.30
2023-02-22T07:49:47.531Z,969.31
2023-02-22T07:50:47.637Z,969.30
2023-02-22T07:51:47.668Z,969.26
2023-02-22T07:52:47.666Z,969.28
2023-02-22T07:53:47.683Z,969.30
2023-02-22T07:54:47.711Z,969.29
2023-02-22T07:55:47.828Z,969.28
2023-02-22T07:56:47.793Z,969.27
2023-02-22T07:57:47.848Z,969.26
2023-02-22T07:58:47.908Z,969.26
2023-02-22T07:59:47.932Z,969.24
2023-02-22T08:00:47.968Z,969.28
2023-02-22T08:01:48.019Z,969.25
2023-02-22T08:02:48.133Z,969.23
2023-02-22T08:03:48.192Z,969.20
2023-02-22T08:04:48.145Z,969.19
2023-02-22T08:05:48.193Z,969.18
2023-02-22T08:06:48.224Z,969.19
2023-02-22T08:07:48.273Z,969.23
2023-02-22T08:08:48.345Z,969.26
2023-02-22T08:09:48.356Z,969.21
2023-02-22T08:10:48.414Z,969.22
2023-02-22T08:11:48.442Z,969.22
2023-02-22T08:12:48.493Z,969.22
2023-02-22T08:13:48.557Z,969.22
2023-02-22T08:14:48.581Z,969.22
2023-02-22T08:15:48.640Z,969.23
2023-02-22T08:16:48.719Z,969.22
2023-02-22T08:17:48.705Z,969.19
2023-02-22T08:18:48.757Z,969.25
2023-02-22T08:19:48.793Z,969.27
2023-02-22T08:20:48.866Z,969.24
2023-02-22T08:21:48.875Z,969.23
2023-02-22T08:22:48.937Z,969.21
2023-02-22T08:23:48.969Z,969.28
2023-02-22T08:24:49.067Z,969.26
2023-02-22T08:25:49.083Z,969.26
2023-02-22T08:26:49.108Z,969.26
2023-02-22T08:27:49.165Z,969.28
2023-02-22T08:28:49.220Z,969.29
2023-02-22T08:29:49.258Z,969.29
2023-02-22T08:30:49.397Z,969.28
2023-02-22T08:31:49.454Z,969.27
2023-02-22T08:32:49.545Z,969.25
2023-02-22T08:33:49.419Z,969.24
2023-02-22T08:34:49.501Z,969.26
2023-02-22T08:35:49.662Z,969.26
2023-02-22T08:36:49.561Z,969.21
2023-02-22T08:37:49.732Z,969.20
2023-02-22T08:38:49.687Z,969.27
2023-02-22T08:39:49.733Z,969.25
2023-02-22T08:40:49.780Z,969.25
2023-02-22T08:41:49.781Z,969.22
2023-02-22T08:42:49.886Z,969.25
2023-02-22T08:43:49.912Z,969.24
2023-02-22T08:44:49.991Z,969.23
2023-02-22T08:45:50.042Z,969.23
2023-02-22T08:46:50.032Z,969.23
2023-02-22T08:47:50.060Z,969.25
2023-02-22T08:48:50.131Z,969.21
2023-02-22T08:49:50.212Z,969.20
2023-02-22T08:50:50.204Z,969.14
2023-02-22T08:51:50.275Z,969.16
2023-02-22T08:52:50.378Z,969.15
2023-02-22T08:53:50.355Z,969.15
2023-02-22T08:54:50.404Z,969.10
2023-02-22T08:55:50.449Z,969.11
2023-02-22T08:56:50.460Z,969.16
2023-02-22T08:57:50.545Z,969.13
2023-02-22T08:58:50.557Z,969.10
2023-02-22T08:59:50.648Z,969.13
2023-02-22T09:00:50.660Z,969.14
2023-02-22T09:01:50.763Z,969.16
2023-02-22T09:02:50.744Z,969.13
2023-02-22T09:03:50.822Z,969.12
2023-02-22T09:04:50.832Z,969.09
2023-02-22T09:05:50.938Z,969.12
2023-02-22T09:06:50.930Z,969.12
2023-02-22T09:07:50.976Z,969.14
2023-02-22T09:08:51.033Z,969.14
2023-02-22T09:09:51.100Z,969.16
2023-02-22T09:10:51.125Z,969.15
2023-02-22T09:11:53.124Z,969.15
2023-02-22T09:12:51.215Z,969.15
2023-02-22T09:13:51.281Z,969.13
2023-02-22T09:14:51.389Z,969.13
2023-02-22T09:15:51.387Z,969.11
2023-02-22T09:16:51.606Z,969.13
2023-02-22T09:17:51.490Z,969.12
2023-02-22T09:18:51.504Z,969.08
2023-02-22T09:19:51.588Z,969.06
2023-02-22T09:20:51.632Z,969.06
2023-02-22T09:21:51.675Z,969.07
2023-02-22T09:22:51.718Z,969.08
2023-02-22T09:23:51.781Z,969.05
2023-02-22T09:24:51.796Z,969.05
2023-02-22T09:25:51.862Z,969.03
2023-02-22T09:26:51.997Z,969.04
2023-02-22T09:27:52.036Z,969.03
2023-02-22T09:28:52.015Z,969.03
2023-02-22T09:29:52.023Z,969.02
2023-02-22T09:30:52.105Z,969.03
2023-02-22T09:31:52.306Z,968.99
2023-02-22T09:32:52.342Z,969.04
2023-02-22T09:33:52.211Z,969.03
2023-02-22T09:34:52.312Z,969.03
2023-02-22T09:35:52.281Z,969.05
2023-02-22T09:36:52.396Z,969.02
2023-02-22T09:37:52.375Z,969.04
2023-02-22T09:38:52.415Z,969.03
2023-02-22T09:39:52.638Z,969.02
2023-02-22T09:40:52.525Z,969.03
2023-02-22T09:41:52.601Z,969.05
2023-02-22T09:42:52.609Z,969.04
2023-02-22T09:43:52.652Z,969.04
2023-02-22T09:44:52.695Z,969.00
2023-02-22T09:45:52.806Z,968.99
2023-02-22T09:46:52.783Z,968.98
2023-02-22T09:47:53.147Z,969.00
2023-02-22T09:48:52.876Z,969.03
2023-02-22T09:49:52.942Z,969.00
2023-02-22T09:50:52.995Z,968.99
2023-02-22T09:51:53.062Z,969.02
2023-02-22T09:52:53.093Z,969.00
2023-02-22T09:53:53.121Z,969.00
2023-02-22T09:54:53.151Z,969.02
2023-02-22T09:55:53.196Z,969.02
2023-02-22T09:56:53.271Z,969.01
2023-02-22T09:57:53.301Z,969.04
2023-02-22T09:58:53.338Z,969.03
2023-02-22T09:59:53.391Z,969.04
2023-02-22T10:00:53.486Z,969.06
2023-02-22T10:01:53.502Z,969.02
2023-02-22T10:02:53.575Z,969.01
2023-02-22T10:03:53.745Z,969.01
2023-02-22T10:04:53.700Z,969.00
2023-02-22T10:05:53.718Z,968.96
2023-02-22T10:06:53.761Z,968.98
2023-02-22T10:07:53.782Z,969.00
2023-02-22T10:08:53.908Z,968.99
2023-02-22T10:09:53.888Z,968.97
2023-02-22T10:10:53.900Z,968.97
2023-02-22T10:11:53.939Z,968.98
2023-02-22T10:12:54.005Z,968.95
2023-02-22T10:13:54.066Z,968.94
2023-02-22T10:14:54.133Z,968.95
2023-02-22T10:15:54.128Z,968.97
2023-02-22T10:16:54.240Z,968.93
2023-02-22T10:17:54.219Z,968.94
2023-02-22T10:18:54.283Z,968.94
2023-02-22T10:19:54.889Z,968.93
2023-02-22T10:20:54.378Z,968.99
2023-02-22T10:21:54.408Z,969.01
2023-02-22T10:22:54.464Z,969.00
2023-02-22T10:23:55.020Z,968.94
2023-02-22T10:24:54.585Z,968.93
2023-02-22T10:25:54.594Z,968.94
2023-02-22T10:26:54.652Z,968.91
2023-02-22T10:27:54.689Z,968.93
2023-02-22T10:28:54.742Z,968.88
2023-02-22T10:29:54.817Z,968.92
2023-02-22T10:30:55.002Z,968.91
2023-02-22T10:31:54.986Z,968.84
2023-02-22T10:32:54.932Z,968.89
2023-02-22T10:33:55.024Z,968.89
2023-02-22T10:34:55.055Z,968.83
2023-02-22T10:35:55.080Z,968.88
2023-02-22T10:36:55.139Z,968.88
2023-02-22T10:37:55.208Z,968.85
2023-02-22T10:38:55.242Z,968.91
2023-02-22T10:39:55.293Z,968.93
2023-02-22T10:40:55.327Z,968.90
2023-02-22T10:41:55.389Z,968.89
2023-02-22T10:42:55.462Z,968.86
2023-02-22T10:43:55.490Z,968.87
2023-02-22T10:44:55.533Z,968.92
2023-02-22T10:45:56.656Z,968.85
2023-02-22T10:46:55.642Z,968.82
2023-02-22T10:47:55.725Z,968.77
2023-02-22T10:48:55.756Z,968.79
2023-02-22T10:49:55.800Z,968.75
2023-02-22T10:50:55.832Z,968.79
2023-02-22T10:51:55.922Z,968.82
2023-02-22T10:52:55.973Z,968.86
2023-02-22T10:53:56.079Z,968.86
2023-02-22T10:55:01.023Z,968.83
2023-02-22T10:55:56.190Z,968.86
2023-02-22T10:56:56.174Z,968.85
2023-02-22T10:57:56.252Z,968.83
2023-02-22T10:58:56.422Z,968.83
2023-02-22T10:59:56.328Z,968.87
2023-02-22T11:00:56.413Z,968.88
2023-02-22T11:01:56.382Z,968.88
2023-02-22T11:02:56.493Z,968.89
2023-02-22T11:03:56.486Z,968.81
2023-02-22T11:04:56.697Z,968.83
2023-02-22T11:05:56.642Z,968.81
2023-02-22T11:06:56.736Z,968.71
2023-02-22T11:07:56.695Z,968.68
2023-02-22T11:08:56.742Z,968.74
2023-02-22T11:09:56.788Z,968.68
2023-02-22T11:10:56.845Z,968.74
2023-02-22T11:11:59.541Z,968.61
2023-02-22T11:12:56.944Z,968.59
2023-02-22T11:13:56.998Z,968.62
2023-02-22T11:14:57.079Z,968.61
2023-02-22T11:15:57.089Z,968.60
2023-02-22T11:16:57.265Z,968.52
2023-02-22T11:17:57.187Z,968.57
2023-02-22T11:18:57.285Z,968.55
2023-02-22T11:19:57.293Z,968.56
2023-02-22T11:20:57.340Z,968.49
2023-02-22T11:21:57.388Z,968.48
2023-02-22T11:22:57.479Z,968.41
2023-02-22T11:23:57.480Z,968.42
2023-02-22T11:24:57.643Z,968.39
2023-02-22T11:25:57.592Z,968.43
2023-02-22T11:26:57.646Z,968.43
2023-02-22T11:27:57.695Z,968.47
2023-02-22T11:28:57.738Z,968.43
2023-02-22T11:29:57.821Z,968.46
2023-02-22T11:30:57.913Z,968.45
2023-02-22T11:31:58.605Z,968.37
2023-02-22T11:32:57.993Z,968.34
2023-02-22T11:33:58.028Z,968.42
2023-02-22T11:35:08.817Z,968.35
2023-02-22T11:35:58.261Z,968.29
2023-02-22T11:36:58.213Z,968.36
2023-02-22T11:37:58.254Z,968.38
2023-02-22T11:38:58.429Z,968.40
2023-02-22T11:39:58.361Z,968.42
2023-02-22T11:40:59.084Z,968.36
2023-02-22T11:41:58.419Z,968.38
2023-02-22T11:42:58.519Z,968.32
2023-02-22T11:43:58.535Z,968.33
2023-02-22T11:44:58.731Z,968.35
2023-02-22T11:46:00.534Z,968.30
2023-02-22T11:46:58.685Z,968.29
2023-02-22T11:47:58.754Z,968.29
2023-02-22T11:48:58.818Z,968.26
2023-02-22T11:49:58.906Z,968.32
2023-02-22T11:50:58.902Z,968.30
2023-02-22T11:51:58.974Z,968.27
2023-02-22T11:53:01.548Z,968.26
2023-02-22T11:53:59.076Z,968.27
2023-02-22T11:54:59.155Z,968.25
2023-02-22T11:55:59.213Z,968.27
2023-02-22T11:56:59.267Z,968.33
2023-02-22T11:57:59.316Z,968.26
2023-02-22T11:58:59.348Z,968.28
2023-02-22T11:59:59.427Z,968.27
2023-02-22T12:00:59.450Z,968.26
2023-02-22T12:01:59.542Z,968.27
2023-02-22T12:02:59.563Z,968.22
2023-02-22T12:03:59.675Z,968.22
2023-02-22T12:04:59.773Z,968.21
2023-02-22T12:05:59.820Z,968.14
2023-02-22T12:06:59.855Z,968.17
2023-02-22T12:08:03.189Z,968.17
2023-02-22T12:08:59.901Z,968.18
2023-02-22T12:09:59.946Z,968.09
2023-02-22T12:11:00.010Z,968.09
2023-02-22T12:12:00.098Z,968.13
2023-02-22T12:13:00.147Z,968.01
2023-02-22T12:14:00.167Z,968.09
2023-02-22T12:15:00.246Z,968.05
2023-02-22T12:16:00.300Z,968.00
2023-02-22T12:17:00.361Z,968.04
2023-02-22T12:18:00.612Z,968.03
2023-02-22T12:19:00.443Z,968.00
2023-02-22T12:20:00.496Z,968.04
2023-02-22T12:21:00.552Z,968.04
2023-02-22T12:22:00.738Z,968.05
2023-02-22T12:23:00.734Z,967.99
2023-02-22T12:24:00.759Z,967.94
2023-02-22T12:25:09.720Z,967.96
2023-02-22T12:26:00.948Z,967.89
2023-02-22T12:27:00.940Z,968.00
2023-02-22T12:28:01.029Z,967.91
2023-02-22T12:29:01.036Z,967.91